ADDS METAR Data INFO
IDs: Format: Raw Decoded Include TAF

Data at: 0233 UTC 26 Jul 2017

KLBX 260153Z AUTO 13004KT 10SM FEW025 29/26 A3007 RMK AO2 SLP183 T02940256
KLBX 260053Z AUTO 17007KT 10SM CLR 31/25 A3006 RMK AO2 LTG DSNT NE SLP179 T03060250
KLBX 252353Z AUTO 18012KT 10SM CLR 32/25 A3006 RMK AO2 SLP178 60007 T03170250 10339 20306 55007
KLBX 252306Z AUTO 17010KT 10SM FEW038 32/25 A3005 RMK AO2 LTG DSNT SE T03220250
KLBX 252253Z AUTO 15013KT 10SM VCTS FEW038 FEW049 33/25 A3005 RMK AO2 SLP176 T03280250
KLBX 252243Z AUTO 17012KT 10SM VCTS FEW038 33/25 A3006 RMK AO2 T03280250
KLBX 252153Z AUTO 18013KT 10SM FEW032 33/25 A3006 RMK AO2 RAE22 SLP178 P0007 T03280250
KLBX 252116Z AUTO 16011KT 10SM -RA FEW028 BKN038 BKN050 31/26 A3007 RMK AO2 P0007 T03110256
KLBX 252108Z AUTO 16011G16KT 8SM -RA BKN028 BKN037 OVC049 32/27 A3007 RMK AO2 P0007 T03170272
KLBX 252053Z AUTO 17012KT 9SM -RA BKN030 BKN036 OVC070 32/26 A3008 RMK AO2 RAB53 SLP185 P0000 60000 T03170261 58010
KLBX 251953Z AUTO 15008KT 10SM SCT030 SCT037 BKN044 33/26 A3009 RMK AO2 SLP189 T03280256
KLBX 251853Z AUTO 15008KT 10SM SCT025 SCT033 32/26 A3010 RMK AO2 SLP192 T03170261
KLBX 251753Z AUTO 17008KT 10SM FEW030 SCT036 32/26 A3011 RMK AO2 SLP195 T03220261 10328 20250 58001
KLBX 251653Z AUTO 18010KT 10SM FEW027 32/26 A3011 RMK AO2 SLP195 T03220261
KLBX 251553Z AUTO 18008KT 10SM CLR 31/26 A3011 RMK AO2 SLP197 T03110256
KLBX 251453Z AUTO 16005KT 10SM CLR 30/26 A3011 RMK AO2 SLP196 T03000256 53013
KLBX 251353Z AUTO 16004KT 10SM CLR 29/26 A3010 RMK AO2 SLP191 T02890256
KLBX 251253Z AUTO 17003KT 10SM CLR 26/26 A3008 RMK AO2 SLP186 T02610256
KLBX 251153Z AUTO 00000KT 10SM CLR 24/24 A3007 RMK AO2 SLP183 T02440239 10261 20239 53010
KLBX 251053Z AUTO 00000KT 10SM CLR 25/24 A3006 RMK AO2 SLP177 T02500244
KLBX 250953Z AUTO 00000KT 10SM CLR 24/24 A3005 RMK AO2 SLP176 T02440239
KLBX 250853Z AUTO 00000KT 9SM CLR 24/23 A3004 RMK AO2 SLP173 T02440233 53002
KLBX 250753Z AUTO 00000KT 10SM FEW027 25/24 A3004 RMK AO2 SLP171 T02500239
KLBX 250653Z AUTO 00000KT 10SM FEW027 25/24 A3004 RMK AO2 SLP172 T02500239
KLBX 250553Z AUTO 18003KT 10SM CLR 26/24 A3004 RMK AO2 SLP171 T02610244 10306 20250 403390250 51012
KLBX 250453Z AUTO 15004KT 10SM CLR 26/24 A3003 RMK AO2 SLP169 T02560239
KLBX 250353Z AUTO 17005KT 10SM CLR 26/24 A3002 RMK AO2 SLP166 T02560239
KLBX 250253Z AUTO 17004KT 10SM CLR 27/24 A3000 RMK AO2 SLP160 T02670244 53008
KLBX 250153Z AUTO 18004KT 10SM CLR 27/24 A2999 RMK AO2 SLP156 T02670244
KLBX 250053Z AUTO 19007KT 10SM CLR 29/24 A2999 RMK AO2 SLP154 T02890244
KLBX 242353Z AUTO 18011KT 10SM CLR 31/24 A2998 RMK AO2 SLP152 T03060244 10333 20306 53002
KLBX 242253Z AUTO 19012KT 10SM CLR 31/23 A2998 RMK AO2 SLP151 T03110233
KLBX 242153Z AUTO 17011KT 10SM CLR 32/24 A2997 RMK AO2 SLP149 T03220239
KLBX 242053Z AUTO 18011KT 10SM CLR 32/24 A2997 RMK AO2 SLP150 T03170239 58016
KLBX 241953Z AUTO 20009G19KT 10SM CLR 33/22 A2999 RMK AO2 SLP156 T03280217
KLBX 241853Z AUTO 19012G17KT 10SM CLR 33/23 A3001 RMK AO2 SLP161 T03330233
KLBX 241753Z AUTO 20010G16KT 10SM FEW040 33/23 A3002 RMK AO2 SLP165 60000 T03330233 10339 20267 50006
KLBX 241653Z AUTO 20009KT 10SM SCT039 33/24 A3002 RMK AO2 SLP166 T03280239
KLBX 241553Z AUTO 21008KT 170V240 10SM SCT035 32/24 A3001 RMK AO2 SLP163 T03220244
KLBX 241453Z AUTO 20011KT 10SM CLR 31/25 A3000 RMK AO2 SLP159 60000 T03110250 51017